Time;durP1;ratioP1;P1;durP2;ratioP2;P2;SDS_P1;SDS_P2;PMS_P1;PMS_P2;Temp;Humidity;BMP_temperature;BMP_pressure;BME280_temperature;BME280_humidity;BME280_pressure;Samples;Min_cycle;Max_cycle;Signal;HPM_P1;HPM_P2
2021/06/25 00:01:45;;;;;;;2.00;1.80;;;;;;;16.27;100.00;96615.72;5040962;28;20081;-50
2021/06/25 00:04:14;;;;;;;6.03;2.00;;;;;;;16.05;100.00;96604.88;5025423;28;20077;-51
2021/06/25 00:06:42;;;;;;;2.10;1.80;;;;;;;16.26;100.00;96604.25;5045453;28;20162;-51
2021/06/25 00:09:10;;;;;;;2.42;1.80;;;;;;;16.22;100.00;96602.97;5048531;28;20064;-50
2021/06/25 00:11:40;;;;;;;2.22;1.95;;;;;;;16.26;100.00;96593.59;5041559;28;20428;-55
2021/06/25 00:14:08;;;;;;;2.10;1.90;;;;;;;16.12;100.00;96599.69;5048298;28;20065;-52
2021/06/25 00:16:37;;;;;;;2.03;1.83;;;;;;;16.31;100.00;96598.38;5043333;28;20092;-47
2021/06/25 00:19:05;;;;;;;1.90;1.80;;;;;;;16.20;100.00;96594.31;5050913;28;20077;-49
2021/06/25 00:21:34;;;;;;;2.30;2.10;;;;;;;16.27;100.00;96600.56;5021973;28;20073;-53
2021/06/25 00:24:02;;;;;;;2.60;2.17;;;;;;;16.35;100.00;96595.22;5035474;28;20064;-52
2021/06/25 00:26:30;;;;;;;5.05;2.20;;;;;;;16.40;100.00;96597.34;5045436;28;20075;-51
2021/06/25 00:29:00;;;;;;;2.42;2.22;;;;;;;16.21;100.00;96595.13;5053273;28;20073;-54
2021/06/25 00:31:47;;;;;;;2.75;2.45;;;;;;;16.32;100.00;96598.22;5038142;28;20790;-50
2021/06/25 00:34:16;;;;;;;2.85;2.55;;;;;;;16.30;100.00;96607.38;5052530;28;20076;-49
2021/06/25 00:36:44;;;;;;;3.05;2.58;;;;;;;16.44;100.00;96601.28;5040517;28;20073;-54
2021/06/25 00:39:13;;;;;;;3.20;2.72;;;;;;;16.29;100.00;96595.91;5050882;28;20065;-51
2021/06/25 00:41:42;;;;;;;4.35;2.83;;;;;;;16.47;100.00;96598.28;5050972;28;20072;-48
2021/06/25 00:44:18;;;;;;;3.88;3.10;;;;;;;16.20;100.00;96594.31;5047929;28;20446;-48
2021/06/25 00:46:47;;;;;;;3.30;3.00;;;;;;;16.26;100.00;96600.78;5038737;28;20100;-50
2021/06/25 00:49:16;;;;;;;3.55;3.03;;;;;;;16.18;100.00;96601.66;5029334;28;20447;-56
2021/06/25 00:52:03;;;;;;;3.60;3.20;;;;;;;16.35;100.00;96615.69;5035607;28;20075;-54
2021/06/25 00:54:32;;;;;;;3.58;3.28;;;;;;;16.41;100.00;96606.16;5044321;28;20036;-55
2021/06/25 00:57:00;;;;;;;4.70;3.50;;;;;;;16.31;100.00;96611.69;5047709;28;20067;-49
2021/06/25 00:59:30;;;;;;;4.35;3.45;;;;;;;16.43;100.00;96604.97;5044232;28;20704;-50
2021/06/25 01:01:58;;;;;;;4.63;3.37;;;;;;;16.29;100.00;96606.56;5040785;28;20064;-55
2021/06/25 01:04:26;;;;;;;4.80;3.30;;;;;;;16.46;100.00;96604.63;5042715;28;20077;-53
2021/06/25 01:06:55;;;;;;;4.53;3.47;;;;;;;16.31;100.00;96609.88;5044296;28;20065;-52
2021/06/25 01:09:23;;;;;;;5.72;3.40;;;;;;;16.27;100.00;96605.91;5042272;28;20065;-54
2021/06/25 01:11:51;;;;;;;5.45;3.65;;;;;;;16.30;100.00;96610.06;5046223;28;20460;-51
2021/06/25 01:14:20;;;;;;;3.38;3.13;;;;;;;16.32;100.00;96614.19;5046036;28;20068;-51
2021/06/25 01:16:50;;;;;;;3.63;3.28;;;;;;;16.43;100.00;96612.97;5041597;28;20076;-51
2021/06/25 01:19:19;;;;;;;5.32;3.13;;;;;;;16.36;100.00;96615.50;5045397;28;20080;-49
2021/06/25 01:21:48;;;;;;;4.57;3.28;;;;;;;16.37;100.00;96606.50;5042793;28;20061;-54
2021/06/25 01:24:16;;;;;;;4.50;3.10;;;;;;;16.43;100.00;96606.81;5043433;28;20080;-54
2021/06/25 01:26:45;;;;;;;3.42;3.13;;;;;;;16.22;100.00;96610.13;5045442;28;20486;-49
2021/06/25 01:29:13;;;;;;;3.72;3.25;;;;;;;16.28;100.00;96614.75;5045262;28;20071;-49
2021/06/25 01:31:41;;;;;;;4.40;3.10;;;;;;;16.47;100.00;96614.25;5044582;28;20084;-51
2021/06/25 01:34:10;;;;;;;4.97;3.20;;;;;;;16.39;100.00;96606.34;5050439;28;20080;-55
2021/06/25 01:36:39;;;;;;;3.28;2.90;;;;;;;16.24;100.00;96608.09;5041418;28;20346;-55
2021/06/25 01:39:09;;;;;;;3.60;3.05;;;;;;;16.29;100.00;96603.91;5044235;28;20439;-50
2021/06/25 01:41:39;;;;;;;2.80;2.60;;;;;;;16.32;100.00;96600.06;5045844;28;20061;-48
2021/06/25 01:44:09;;;;;;;2.65;2.30;;;;;;;16.15;100.00;96604.66;5040379;28;20508;-53
2021/06/25 01:46:39;;;;;;;3.65;1.92;;;;;;;16.45;100.00;96607.44;5042805;28;20091;-51
2021/06/25 01:49:07;;;;;;;2.83;2.10;;;;;;;16.30;100.00;96592.25;5044333;28;20083;-50
2021/06/25 01:51:35;;;;;;;4.30;2.35;;;;;;;16.30;100.00;96594.09;5038999;28;20601;-51
2021/06/25 01:54:04;;;;;;;4.20;2.28;;;;;;;16.36;100.00;96590.72;5028683;28;20073;-50
2021/06/25 01:56:34;;;;;;;4.28;2.42;;;;;;;16.37;100.00;96592.38;5030427;28;20061;-52
2021/06/25 01:59:02;;;;;;;5.33;2.53;;;;;;;16.14;100.00;96595.03;5042634;28;20071;-52
2021/06/25 02:01:30;;;;;;;2.70;2.47;;;;;;;16.31;100.00;96595.72;5047057;28;20518;-55
2021/06/25 02:03:59;;;;;;;4.68;2.42;;;;;;;16.18;100.00;96590.19;5021300;28;20614;-52
2021/06/25 02:06:27;;;;;;;3.50;2.30;;;;;;;16.20;100.00;96591.66;5033279;28;20067;-53
2021/06/25 02:08:55;;;;;;;2.75;2.28;;;;;;;16.12;100.00;96599.69;5040938;28;20524;-55
2021/06/25 02:11:24;;;;;;;3.05;2.30;;;;;;;16.27;100.00;96594.44;5043049;28;20057;-53
2021/06/25 02:13:53;;;;;;;2.03;1.92;;;;;;;15.99;100.00;96583.47;5047884;28;20072;-53
2021/06/25 02:16:22;;;;;;;2.60;2.40;;;;;;;16.26;100.00;96590.13;5043768;28;20092;-51
2021/06/25 02:18:50;;;;;;;4.43;2.40;;;;;;;16.25;100.00;96597.28;5044798;28;20470;-57
2021/06/25 02:21:18;;;;;;;3.15;2.03;;;;;;;16.08;100.00;96591.25;5045304;28;20063;-55
2021/06/25 02:23:47;;;;;;;2.17;1.92;;;;;;;16.17;100.00;96596.50;5045624;28;20064;-51
2021/06/25 02:26:15;;;;;;;2.72;2.10;;;;;;;16.16;100.00;96594.84;5041190;28;20056;-58
2021/06/25 02:28:43;;;;;;;2.25;2.00;;;;;;;16.12;100.00;96595.19;5052127;28;20084;-52
2021/06/25 02:31:13;;;;;;;2.88;2.00;;;;;;;16.13;100.00;96578.22;5042615;28;20459;-51
2021/06/25 02:33:41;;;;;;;2.05;1.95;;;;;;;15.98;100.00;96580.00;5047102;28;20068;-54
2021/06/25 02:36:10;;;;;;;2.28;2.08;;;;;;;15.97;100.00;96581.00;5045483;28;20526;-52
2021/06/25 02:38:38;;;;;;;4.13;2.00;;;;;;;16.05;100.00;96580.13;5047539;28;20065;-53
2021/06/25 02:41:07;;;;;;;2.58;1.95;;;;;;;16.03;100.00;96580.28;5049650;28;20196;-56
2021/06/25 02:43:35;;;;;;;2.17;1.98;;;;;;;15.90;100.00;96578.22;5044509;28;20080;-52
2021/06/25 02:46:03;;;;;;;2.25;1.90;;;;;;;15.90;100.00;96577.38;5050598;28;20087;-54
2021/06/25 02:48:33;;;;;;;1.70;1.60;;;;;;;15.98;100.00;96579.16;5046521;28;20064;-55
2021/06/25 02:51:01;;;;;;;2.07;1.80;;;;;;;15.95;100.00;96574.19;5049946;28;20080;-53
2021/06/25 02:53:29;;;;;;;2.65;1.80;;;;;;;15.80;100.00;96576.78;5041749;28;20517;-53
2021/06/25 02:55:58;;;;;;;1.73;1.63;;;;;;;15.89;100.00;96584.50;5048430;28;20083;-55
2021/06/25 02:58:26;;;;;;;2.83;1.77;;;;;;;15.82;100.00;96570.25;5045059;28;20088;-53
2021/06/25 03:00:55;;;;;;;1.80;1.60;;;;;;;16.09;100.00;96570.78;5050085;28;20137;-54
2021/06/25 03:03:24;;;;;;;2.22;1.67;;;;;;;15.85;100.00;96571.75;5045019;28;20526;-54
2021/06/25 03:05:53;;;;;;;1.77;1.67;;;;;;;15.92;100.00;96567.38;5046480;28;20073;-50
2021/06/25 03:08:22;;;;;;;1.67;1.58;;;;;;;15.80;100.00;96569.63;5037911;28;20550;-53
2021/06/25 03:10:51;;;;;;;1.90;1.58;;;;;;;15.78;100.00;96566.31;5031116;28;20081;-55
2021/06/25 03:13:21;;;;;;;3.00;1.80;;;;;;;16.09;100.00;96560.13;5045810;28;20077;-58
2021/06/25 03:15:50;;;;;;;1.90;1.70;;;;;;;15.77;100.00;96561.16;5051878;28;20064;-53
2021/06/25 03:18:18;;;;;;;1.67;1.58;;;;;;;15.84;100.00;96562.94;5026134;28;20077;-56
2021/06/25 03:20:47;;;;;;;2.08;1.90;;;;;;;15.84;100.00;96564.78;5025091;28;21533;-57
2021/06/25 03:23:16;;;;;;;1.80;1.70;;;;;;;16.03;100.00;96566.16;5017975;28;20087;-57
2021/06/25 03:25:45;;;;;;;2.97;1.63;;;;;;;16.10;100.00;96569.75;5024900;28;20069;-51
2021/06/25 03:28:14;;;;;;;2.33;1.88;;;;;;;15.90;100.00;96577.38;5017097;28;20097;-50
2021/06/25 03:30:43;;;;;;;2.35;1.98;;;;;;;16.13;100.00;96564.09;5045790;28;20080;-56
2021/06/25 03:33:12;;;;;;;1.85;1.70;;;;;;;15.92;100.00;96571.88;5048317;28;20044;-58
2021/06/25 03:35:40;;;;;;;1.90;1.80;;;;;;;16.03;100.00;96566.16;5048287;28;20523;-52
2021/06/25 03:38:09;;;;;;;5.20;2.05;;;;;;;16.12;100.00;96563.28;5045320;28;20087;-50
2021/06/25 03:40:38;;;;;;;2.75;1.80;;;;;;;16.05;100.00;96564.97;5043036;28;20079;-53
2021/06/25 03:43:07;;;;;;;1.90;1.70;;;;;;;16.07;100.00;96570.97;5028390;28;20444;-52
2021/06/25 03:45:35;;;;;;;2.38;1.55;;;;;;;16.02;100.00;96565.34;5040768;28;21179;-53
2021/06/25 03:48:05;;;;;;;2.15;1.60;;;;;;;15.88;100.00;96574.06;5047738;28;20527;-49
2021/06/25 03:50:33;;;;;;;1.73;1.60;;;;;;;16.25;100.00;96575.16;5044284;28;20068;-50
2021/06/25 03:53:02;;;;;;;2.78;1.60;;;;;;;15.96;100.00;96573.19;5038860;28;20072;-49
2021/06/25 03:55:30;;;;;;;4.57;1.70;;;;;;;15.87;100.00;96575.06;5028137;28;20091;-48
2021/06/25 03:58:00;;;;;;;3.08;1.75;;;;;;;16.10;100.00;96569.75;5025678;28;21461;-49
2021/06/25 04:00:28;;;;;;;3.00;1.77;;;;;;;16.25;100.00;96572.50;5019706;28;20057;-52
2021/06/25 04:02:57;;;;;;;2.38;1.90;;;;;;;16.29;100.00;96571.97;5024321;28;20081;-50
2021/06/25 04:05:26;;;;;;;3.20;2.10;;;;;;;16.22;100.00;96572.88;5020148;28;20653;-47
2021/06/25 04:07:54;;;;;;;3.63;1.98;;;;;;;16.03;100.00;96579.44;5022509;28;20640;-49
2021/06/25 04:10:22;;;;;;;3.55;1.90;;;;;;;16.17;100.00;96569.88;5023670;28;20093;-51
2021/06/25 04:12:51;;;;;;;1.85;1.75;;;;;;;16.29;100.00;96573.81;5022379;28;20068;-55
2021/06/25 04:15:20;;;;;;;2.08;1.88;;;;;;;16.13;100.00;96577.41;5035956;28;20065;-58
2021/06/25 04:17:49;;;;;;;2.05;1.85;;;;;;;16.12;100.00;96575.75;5050565;28;20064;-48
2021/06/25 04:20:17;;;;;;;1.95;1.85;;;;;;;16.43;100.00;96573.03;5045608;28;20076;-53
2021/06/25 04:22:46;;;;;;;2.40;2.00;;;;;;;16.18;100.00;96571.56;5048241;28;20467;-49
2021/06/25 04:25:14;;;;;;;2.85;1.90;;;;;;;16.33;100.00;96570.59;5044252;28;20083;-53
2021/06/25 04:27:43;;;;;;;2.15;1.80;;;;;;;16.44;100.00;96579.19;5045204;28;20111;-50
2021/06/25 04:30:13;;;;;;;2.53;1.60;;;;;;;16.10;100.00;96570.63;5045492;28;20071;-49
2021/06/25 04:32:43;;;;;;;;;;;;;;;16.41;100.00;96563.56;5045206;28;20084;-53
2021/06/25 04:35:11;;;;;;;2.53;1.65;;;;;;;16.34;100.00;96568.75;5045492;28;20046;-48
2021/06/25 04:37:40;;;;;;;1.60;1.50;;;;;;;16.64;100.00;96569.69;5043867;28;20080;-55
2021/06/25 04:40:10;;;;;;;2.78;1.70;;;;;;;16.27;100.00;96565.97;5026590;28;20484;-55
2021/06/25 04:42:39;;;;;;;2.35;1.63;;;;;;;16.45;100.00;96571.03;5039911;28;20065;-54
2021/06/25 04:45:09;;;;;;;2.25;1.70;;;;;;;16.87;100.00;96574.19;5032937;28;20072;-54
2021/06/25 04:47:37;;;;;;;1.73;1.63;;;;;;;16.97;100.00;96570.25;5029940;28;20068;-51
2021/06/25 04:50:08;;;;;;;2.72;1.80;;;;;;;17.27;100.00;96571.13;5044788;28;20064;-53
2021/06/25 04:52:36;;;;;;;4.03;1.92;;;;;;;18.07;100.00;96565.97;5043706;28;20566;-49
2021/06/25 04:55:06;;;;;;;3.10;1.80;;;;;;;18.68;100.00;96558.31;5047490;28;20085;-50
2021/06/25 04:57:34;;;;;;;4.68;1.90;;;;;;;18.66;100.00;96563.03;5038766;28;20091;-47
2021/06/25 05:00:05;;;;;;;2.50;1.70;;;;;;;18.64;100.00;96560.53;5040312;28;21757;-53
2021/06/25 05:02:33;;;;;;;;;;;;;;;18.20;100.00;96566.94;5047563;28;20095;-54
2021/06/25 05:05:01;;;;;;;1.70;1.60;;;;;;;18.44;100.00;96564.88;5046250;28;19972;-53
2021/06/25 05:07:31;;;;;;;3.42;1.50;;;;;;;18.01;100.00;96567.53;5048891;28;20095;-58
2021/06/25 05:09:59;;;;;;;2.65;1.60;;;;;;;17.64;100.00;96564.00;5044526;28;20330;-51
2021/06/25 05:12:28;;;;;;;2.10;1.83;;;;;;;17.93;100.00;96565.81;5043991;28;20073;-51
2021/06/25 05:14:57;;;;;;;4.25;1.60;;;;;;;17.62;100.00;96567.84;5041759;28;20041;-55
2021/06/25 05:17:26;;;;;;;3.47;1.55;;;;;;;17.41;100.00;96572.13;5043989;28;20072;-50
2021/06/25 05:19:55;;;;;;;2.65;1.67;;;;;;;17.61;100.00;96564.34;5044082;28;20667;-54
2021/06/25 05:22:24;;;;;;;3.45;1.80;;;;;;;17.35;100.00;96564.84;5052538;28;20435;-46
2021/06/25 05:24:54;;;;;;;3.53;1.73;;;;;;;17.50;100.00;96572.84;5038029;28;20071;-52
2021/06/25 05:27:23;;;;;;;1.70;1.60;;;;;;;17.92;100.00;96563.31;5042440;28;20674;-50
2021/06/25 05:29:51;;;;;;;1.90;1.60;;;;;;;17.81;100.00;96555.81;5042220;28;20470;-55
2021/06/25 05:32:19;;;;;;;1.92;1.73;;;;;;;17.75;100.00;96560.00;5044718;28;20072;-54
2021/06/25 05:34:48;;;;;;;2.22;1.67;;;;;;;17.61;100.00;96560.88;5041061;28;20079;-53
2021/06/25 05:37:17;;;;;;;1.88;1.67;;;;;;;17.78;100.00;96562.34;5044314;28;20079;-55
2021/06/25 05:39:45;;;;;;;2.45;1.90;;;;;;;17.58;100.00;96564.72;5036035;28;20052;-49
2021/06/25 05:42:15;;;;;;;2.83;1.75;;;;;;;18.44;100.00;96559.53;5043046;28;20080;-49
2021/06/25 05:44:43;;;;;;;3.10;1.90;;;;;;;18.30;100.00;96566.59;5041409;28;20061;-48
2021/06/25 05:47:11;;;;;;;1.55;1.45;;;;;;;18.63;100.00;96558.06;5047424;28;20072;-57
2021/06/25 05:49:40;;;;;;;1.77;1.60;;;;;;;18.71;100.00;96555.25;5042947;28;20718;-53
2021/06/25 05:52:08;;;;;;;1.58;1.40;;;;;;;18.60;100.00;96564.63;5044422;28;20092;-51
2021/06/25 05:54:37;;;;;;;2.58;1.73;;;;;;;18.61;100.00;96563.59;5043572;28;20076;-49
2021/06/25 05:57:06;;;;;;;3.45;1.70;;;;;;;18.35;100.00;96556.19;5045930;28;20071;-51
2021/06/25 05:59:36;;;;;;;1.70;1.60;;;;;;;18.56;100.00;96563.34;5048264;28;20068;-58
2021/06/25 06:02:05;;;;;;;2.08;1.88;;;;;;;18.23;100.00;96560.38;5048404;28;20507;-53
2021/06/25 06:04:33;;;;;;;2.38;1.50;;;;;;;18.45;100.00;96562.03;5042016;28;20451;-55
2021/06/25 06:07:03;;;;;;;1.67;1.58;;;;;;;18.45;100.00;96559.38;5046253;28;20103;-50
2021/06/25 06:09:31;;;;;;;1.88;1.65;;;;;;;18.23;100.00;96560.38;5038712;28;20064;-56
2021/06/25 06:12:00;;;;;;;2.10;1.60;;;;;;;17.76;100.00;96562.53;5047373;28;20076;-51
2021/06/25 06:14:28;;;;;;;1.75;1.60;;;;;;;18.02;100.00;96567.34;5051228;28;20037;-51
2021/06/25 06:16:58;;;;;;;3.95;1.73;;;;;;;18.30;100.00;96569.25;5046026;28;20072;-50
2021/06/25 06:19:37;;;;;;;1.90;1.63;;;;;;;18.16;100.00;96576.31;5048569;28;20068;-48
2021/06/25 06:33:12;;;;;;;3.22;1.80;;;;;;;18.79;100.00;96565.00;5044766;28;20455;-50
2021/06/25 06:35:40;;;;;;;3.03;1.80;;;;;;;19.40;100.00;96562.53;5044797;28;20076;-53
2021/06/25 06:38:09;;;;;;;2.78;2.00;;;;;;;19.07;100.00;96568.53;5043147;28;20163;-53
2021/06/25 06:40:37;;;;;;;3.10;1.88;;;;;;;19.35;100.00;96559.66;5044649;28;20076;-53
2021/06/25 06:43:06;;;;;;;3.15;1.88;;;;;;;19.30;100.00;96565.56;5047316;28;20165;-53
2021/06/25 06:45:35;;;;;;;3.85;1.90;;;;;;;19.28;100.00;96566.81;5032324;28;20069;-53
2021/06/25 06:48:04;;;;;;;2.00;1.80;;;;;;;19.10;100.00;96561.97;5037758;28;20072;-53
2021/06/25 06:50:34;;;;;;;2.33;1.90;;;;;;;18.88;100.00;96555.84;5041904;28;20069;-51
2021/06/25 06:53:02;;;;;;;2.70;1.77;;;;;;;19.63;100.00;96560.44;5049035;28;20041;-48
2021/06/25 06:55:31;;;;;;;3.05;2.10;;;;;;;19.67;100.00;96563.53;5046452;28;20123;-51
2021/06/25 06:57:59;;;;;;;2.03;1.83;;;;;;;20.02;100.00;96561.59;5044956;28;20475;-51
2021/06/25 07:00:28;;;;;;;2.38;2.00;;;;;;;19.88;100.00;96560.72;5042503;28;20084;-52
2021/06/25 07:02:56;;;;;;;4.40;1.77;;;;;;;20.02;100.00;96556.25;5048859;28;20064;-51
2021/06/25 07:05:25;;;;;;;4.03;2.13;;;;;;;19.58;100.00;96564.69;5048351;28;20071;-49
2021/06/25 07:07:55;;;;;;;2.67;2.13;;;;;;;20.45;100.00;96561.28;5041022;28;20077;-50
2021/06/25 07:10:23;;;;;;;2.35;2.08;;;;;;;19.27;100.00;96568.66;5030433;28;20081;-53
2021/06/25 07:12:51;;;;;;;3.50;2.35;;;;;;;19.48;100.00;96577.59;5044869;28;20061;-50
2021/06/25 07:15:20;;;;;;;2.47;2.13;;;;;;;19.58;100.00;96570.88;5047017;28;20072;-52
2021/06/25 07:17:48;;;;;;;3.03;2.28;;;;;;;20.46;100.00;96575.50;5045787;28;20076;-50
2021/06/25 07:20:16;;;;;;;2.40;2.00;;;;;;;19.96;100.00;96574.94;5038370;28;20072;-49
2021/06/25 07:22:45;;;;;;;2.90;2.50;;;;;;;20.03;100.00;96573.16;5021211;28;20188;-48
2021/06/25 07:25:15;;;;;;;3.85;2.50;;;;;;;19.64;100.00;96570.09;5050154;28;20076;-50
2021/06/25 07:27:43;;;;;;;3.20;2.38;;;;;;;20.12;100.00;96572.75;5044187;28;20060;-49
2021/06/25 07:30:13;;;;;;;2.30;2.10;;;;;;;20.09;100.00;96575.81;5048159;28;20064;-55
2021/06/25 07:32:41;;;;;;;2.90;2.60;;;;;;;20.15;100.00;96563.50;5041745;28;20072;-50
2021/06/25 07:35:10;;;;;;;2.92;2.58;;;;;;;20.62;100.00;96567.94;5046745;28;20095;-55
2021/06/25 07:37:39;;;;;;;2.40;2.10;;;;;;;20.24;100.00;96558.78;5049290;28;20100;-51
2021/06/25 07:40:08;;;;;;;3.42;2.38;;;;;;;21.36;100.00;96560.69;5048819;28;20073;-50
2021/06/25 07:42:38;;;;;;;2.75;2.50;;;;;;;21.73;100.00;96553.75;5047206;28;20080;-51
2021/06/25 07:45:09;;;;;;;2.40;2.20;;;;;;;21.18;100.00;96553.25;5045268;28;20080;-51
2021/06/25 07:47:37;;;;;;;;;;;;;;;21.11;100.00;96557.81;5048703;28;20447;-50
2021/06/25 07:50:08;;;;;;;2.10;1.90;;;;;;;20.78;100.00;96558.66;5050290;28;19952;-52
2021/06/25 07:52:37;;;;;;;1.90;1.80;;;;;;;20.87;100.00;96548.56;5043843;28;20480;-52
2021/06/25 07:55:06;;;;;;;2.13;1.70;;;;;;;20.99;100.00;96559.47;5045835;28;20056;-55
2021/06/25 07:57:35;;;;;;;1.63;1.52;;;;;;;21.28;100.00;96553.66;5044431;28;20072;-51
2021/06/25 08:00:06;;;;;;;3.10;1.92;;;;;;;21.14;100.00;96544.00;5045780;28;20068;-52
2021/06/25 08:02:35;;;;;;;2.35;1.80;;;;;;;21.16;100.00;96544.59;5052029;28;20072;-53
2021/06/25 08:05:06;;;;;;;3.28;1.73;;;;;;;20.86;100.00;96536.19;5042805;28;20175;-54
2021/06/25 08:07:35;;;;;;;2.85;2.25;;;;;;;20.70;100.00;96545.47;5045997;28;20077;-55
2021/06/25 08:10:05;;;;;;;2.15;1.95;;;;;;;21.13;100.00;96538.81;5046739;28;20085;-50
2021/06/25 08:12:33;;;;;;;2.25;1.90;;;;;;;20.40;100.00;96542.31;5045729;28;20076;-52
2021/06/25 08:15:02;;;;;;;2.65;2.10;;;;;;;20.51;100.00;96539.06;5041892;28;20091;-59
2021/06/25 08:17:32;;;;;;;2.25;2.00;;;;;;;-146.19;100.00;58918.88;5048279;28;20069;-53
2021/06/25 08:20:00;;;;;;;3.20;2.90;;;;;;;;;;5043986;28;20076;-49
2021/06/25 08:22:28;;;;;;;3.45;2.50;;;;;;;-146.19;100.00;58918.88;5049606;28;20088;-50
2021/06/25 08:24:56;;;;;;;2.40;2.20;;;;;;;20.76;100.00;58918.88;5042952;28;20114;-48
2021/06/25 08:27:25;;;;;;;2.20;2.00;;;;;;;21.20;100.00;96527.06;5042939;28;20079;-54
2021/06/25 08:29:55;;;;;;;3.88;2.17;;;;;;;21.35;100.00;96531.38;5041538;28;20075;-57
2021/06/25 08:32:23;;;;;;;2.75;2.00;;;;;;;21.45;100.00;96532.59;5044900;28;20056;-49
2021/06/25 08:34:53;;;;;;;3.05;2.03;;;;;;;21.48;100.00;96526.00;5044572;28;20092;-53
2021/06/25 08:37:21;;;;;;;2.65;2.08;;;;;;;21.01;100.00;96531.41;5046396;28;20076;-52
2021/06/25 08:39:49;;;;;;;3.55;2.28;;;;;;;21.15;100.00;96534.91;5044637;28;20080;-50
2021/06/25 08:42:18;;;;;;;4.72;2.75;;;;;;;20.48;100.00;96547.50;5043203;28;20194;-52
2021/06/25 08:44:46;;;;;;;3.28;2.65;;;;;;;19.52;100.00;96550.28;5046738;28;20069;-55
2021/06/25 08:47:14;;;;;;;3.30;2.15;;;;;;;18.98;100.00;96554.47;5044183;28;20071;-55
2021/06/25 08:49:47;;;;;;;4.95;2.80;;;;;;;19.00;100.00;96553.47;5045138;28;20087;-48
2021/06/25 08:52:17;;;;;;;3.10;2.80;;;;;;;19.29;100.00;96557.75;5049040;28;20087;-47
2021/06/25 08:54:45;;;;;;;3.25;2.80;;;;;;;19.12;100.00;96554.56;5049075;28;20077;-51
2021/06/25 08:57:14;;;;;;;3.63;2.97;;;;;;;18.89;100.00;96561.00;5049051;28;20072;-51
2021/06/25 08:59:45;;;;;;;5.40;2.80;;;;;;;18.68;100.00;96561.81;5044850;28;20531;-54
2021/06/25 09:02:14;;;;;;;3.17;2.80;;;;;;;18.59;100.00;96557.63;5039243;28;20072;-49
2021/06/25 09:04:44;;;;;;;3.83;3.03;;;;;;;18.70;100.00;96562.44;5044080;28;20319;-48
2021/06/25 09:07:12;;;;;;;3.40;3.10;;;;;;;18.69;100.00;96559.97;5044909;28;20073;-58
2021/06/25 09:09:44;;;;;;;4.05;3.05;;;;;;;18.89;100.00;96562.81;5046550;28;20068;-54
2021/06/25 09:12:15;;;;;;;3.97;2.80;;;;;;;19.32;100.00;96560.03;5049402;28;20474;-51
2021/06/25 09:15:00;;;;;;;3.55;2.80;;;;;;;19.56;100.00;96551.53;5043353;28;20565;-53
2021/06/25 09:17:29;;;;;;;3.05;2.00;;;;;;;19.09;100.00;96557.63;5044174;28;20045;-49
2021/06/25 09:19:57;;;;;;;3.15;1.95;;;;;;;19.16;100.00;96551.28;5048089;28;20519;-50
2021/06/25 09:22:26;;;;;;;2.95;1.90;;;;;;;19.34;100.00;96547.28;5045585;28;20076;-51
2021/06/25 09:25:05;;;;;;;2.75;2.15;;;;;;;19.56;100.00;96550.69;5045006;28;20530;-59
2021/06/25 09:27:34;;;;;;;2.38;2.17;;;;;;;19.56;100.00;96548.03;5035421;28;20065;-49
2021/06/25 09:30:10;;;;;;;2.10;1.90;;;;;;;19.95;100.00;96554.56;5041575;28;20068;-49
2021/06/25 09:32:45;;;;;;;3.60;2.20;;;;;;;20.23;100.00;96546.41;5044861;28;20530;-51
2021/06/25 09:35:16;;;;;;;3.47;3.13;;;;;;;20.72;100.00;96543.41;5046853;28;20078;-54
2021/06/25 09:37:46;;;;;;;2.30;2.10;;;;;;;21.22;100.00;96542.94;5036296;28;20099;-58
2021/06/25 09:40:18;;;;;;;2.25;2.05;;;;;;;20.84;100.00;96546.28;5046225;28;20072;-54
2021/06/25 09:42:48;;;;;;;4.28;2.40;;;;;;;21.91;100.00;96533.44;5040270;28;20080;-50
2021/06/25 09:45:16;;;;;;;;;;;;;;;21.47;100.00;96545.78;5044877;28;20068;-48
2021/06/25 09:47:46;;;;;;;2.33;2.03;;;;;;;22.09;100.00;96535.41;5040446;28;19947;-58
2021/06/25 09:50:16;;;;;;;2.10;1.90;;;;;;;21.43;100.00;96531.97;5044950;28;20064;-50
2021/06/25 09:52:52;;;;;;;2.20;2.00;;;;;;;21.66;100.00;96539.53;5049207;28;20085;-54
2021/06/25 09:55:25;;;;;;;2.50;2.30;;;;;;;22.12;100.00;96535.78;5049330;28;20107;-60
2021/06/25 10:03:47;;;;;;;5.07;2.22;;;;;;;21.83;100.00;96537.19;5041160;28;20549;-53
2021/06/25 10:06:17;;;;;;;3.83;2.78;;;;;;;21.56;100.00;96533.78;5049379;28;20060;-55
2021/06/25 10:08:46;;;;;;;2.33;2.13;;;;;;;21.92;100.00;96527.00;5045596;28;20072;-55
2021/06/25 10:11:17;;;;;;;3.22;2.50;;;;;;;22.53;100.00;96518.41;5050252;28;20060;-52
2021/06/25 10:13:47;;;;;;;2.72;2.22;;;;;;;22.92;100.00;96524.50;5041598;28;20068;-52
2021/06/25 10:16:16;;;;;;;2.60;1.65;;;;;;;21.62;100.00;96527.59;5047580;28;20516;-53
2021/06/25 10:18:46;;;;;;;2.30;1.90;;;;;;;22.40;100.00;96522.03;5042926;28;20084;-55
2021/06/25 10:21:16;;;;;;;2.30;1.92;;;;;;;22.33;100.00;96518.53;5044422;28;20087;-55
2021/06/25 10:23:47;;;;;;;1.63;1.52;;;;;;;22.43;100.00;96520.75;5043193;28;20095;-54
2021/06/25 10:26:18;;;;;;;3.30;1.67;;;;;;;23.39;100.00;96516.81;5047563;28;20075;-53
2021/06/25 10:28:49;;;;;;;2.25;1.77;;;;;;;23.04;100.00;96514.69;5042328;28;20077;-52
2021/06/25 10:31:20;;;;;;;3.30;2.10;;;;;;;21.77;100.00;96522.75;5044156;28;20081;-52
2021/06/25 10:33:50;;;;;;;2.40;2.20;;;;;;;22.28;100.00;96515.69;5050119;28;20075;-53
2021/06/25 10:36:19;;;;;;;;;;;;;;;21.51;100.00;96529.06;5042896;28;20459;-50
2021/06/25 10:38:48;;;;;;;2.55;2.05;;;;;;;21.81;100.00;96523.16;5050876;28;20344;-58
2021/06/25 10:41:19;;;;;;;1.45;1.35;;;;;;;21.90;100.00;96526.44;5043769;28;20069;-57
2021/06/25 10:43:50;;;;;;;2.92;1.98;;;;;;;21.69;100.00;96512.28;5047356;28;20073;-50
2021/06/25 10:46:39;;;;;;;2.25;2.00;;;;;;;22.23;100.00;96513.66;5048060;28;20079;-55
2021/06/25 10:49:10;;;;;;;2.40;1.70;;;;;;;22.23;100.00;96515.53;5042602;28;21338;-50
2021/06/25 10:51:40;;;;;;;2.08;1.88;;;;;;;22.35;100.00;96512.97;5041862;28;20080;-55
2021/06/25 10:54:15;;;;;;;2.80;1.60;;;;;;;22.42;100.00;96506.50;5049079;28;20068;-52
2021/06/25 10:57:08;;;;;;;1.60;1.50;;;;;;;22.66;100.00;96501.34;5043097;28;20064;-53
2021/06/25 10:59:45;;;;;;;2.15;1.50;;;;;;;23.36;100.00;96496.53;5042649;28;20490;-55
2021/06/25 11:02:13;;;;;;;2.00;1.80;;;;;;;22.54;100.00;96497.72;5051358;28;20075;-52
2021/06/25 11:04:43;;;;;;;1.90;1.80;;;;;;;23.05;100.00;96497.50;5044701;28;20099;-58
2021/06/25 11:07:13;;;;;;;2.97;2.22;;;;;;;22.67;100.00;96495.75;5045876;28;20085;-54
2021/06/25 11:10:00;;;;;;;2.13;1.92;;;;;;;22.93;100.00;96492.03;5049533;28;20067;-55
2021/06/25 11:12:31;;;;;;;2.20;2.00;;;;;;;22.48;100.00;96492.19;5041873;28;20072;-49
2021/06/25 11:15:31;;;;;;;1.98;1.77;;;;;;;22.57;100.00;96500.78;5047525;28;20471;-52
2021/06/25 11:18:01;;;;;;;2.30;2.10;;;;;;;21.85;100.00;96497.53;5047150;28;20111;-58
2021/06/25 11:20:31;;;;;;;2.40;2.20;;;;;;;22.15;100.00;96487.03;5049979;28;20073;-58
2021/06/25 11:23:08;;;;;;;2.38;2.00;;;;;;;22.83;100.00;96486.31;5042251;28;20067;-55
2021/06/25 11:25:43;;;;;;;2.00;1.80;;;;;;;23.05;100.00;96485.91;5047782;28;20092;-54
2021/06/25 11:28:32;;;;;;;1.50;1.40;;;;;;;22.76;100.00;96485.53;5049739;28;20083;-50
2021/06/25 11:31:06;;;;;;;1.60;1.50;;;;;;;22.87;100.00;96484.81;5048251;28;20104;-55
2021/06/25 11:33:38;;;;;;;1.42;1.33;;;;;;;23.13;100.00;96486.47;5025608;28;20081;-54
2021/06/25 11:36:34;;;;;;;1.40;1.30;;;;;;;23.34;100.00;96485.19;5041429;28;20068;-58
2021/06/25 11:39:21;;;;;;;2.00;1.50;;;;;;;23.79;100.00;96479.50;5009779;28;20129;-55
2021/06/25 11:41:53;;;;;;;1.40;1.30;;;;;;;23.09;100.00;96485.25;5049638;28;20067;-56
2021/06/25 11:44:25;;;;;;;1.73;1.48;;;;;;;22.75;100.00;96481.22;5049468;28;20083;-55
2021/06/25 11:46:56;;;;;;;1.80;1.55;;;;;;;22.91;100.00;96487.88;5044879;28;20150;-60
2021/06/25 11:49:27;;;;;;;1.60;1.50;;;;;;;22.38;100.00;96486.47;5048798;28;20085;-52
2021/06/25 11:51:55;;;;;;;1.33;1.17;;;;;;;21.94;100.00;96493.56;5044991;28;20069;-47
2021/06/25 11:54:24;;;;;;;1.50;1.40;;;;;;;22.00;100.00;96494.56;5046008;28;20064;-48
2021/06/25 11:56:52;;;;;;;1.73;1.52;;;;;;;21.91;100.00;96493.16;5047690;28;20064;-48